Honolulu, HI

2:49 PM HST on September 22, 2014 (GMT -1000)
Pacific Heights | Change Station
CLOSE
Current Station
Personal Weather Station
Location: Honolulu, HI
Elevation: 528 ft
Nearby Weather Stations

Elev 528 ft 21.33 °N, 157.84 °W | Updated 5 seconds ago

Scattered Clouds
Scattered Clouds
85.6 °F
Feels Like 90 °F
N
8.1
Wind Variable Wind from ENE
Gusts 13.0 mph

Today
High -- | Low -- °F
--% Chance of Precip.
Yesterday
High -- | Low -- °F
Precip. -- in
6:20 AM 6:27 PM
Waning Crescent, 1% visible
Pressure 29.99 in
Visibility 10.0 miles
Clouds Few 3000 ft
Scattered Clouds 6000 ft
Scattered Clouds 25000 ft
Heat Index 90 °F
Dew Point 70 °F
Humidity 60%
Rainfall 0.00 in
Snow Depth Not available.
UV 8 out of 12
Pollen Not available.
PM2.5 Good
Flu Activity Not available.
METAR PHNL 222353Z 07016G22KT 10SM FEW030 SCT060 SCT250 32/19 A2999 RMK AO2 SLP154 T03220189 10333 20283 58013

More Conditions Fewer Conditions

Pressure 29.99 in
Visibility 10.0 miles
Clouds Few 3000 ft
Scattered Clouds 6000 ft
Scattered Clouds 25000 ft
Heat Index 90 °F
Dew Point 70 °F
Humidity 60%
Rainfall 0.00 in
Snow Depth Not available.
UV 8 out of 12
Pollen Not available.
PM2.5 Good
Flu Activity Not available.
METAR PHNL 222353Z 07016G22KT 10SM FEW030 SCT060 SCT250 32/19 A2999 RMK AO2 SLP154 T03220189 10333 20283 58013

More Conditions Fewer Conditions

10-Day Weather Forecast

Almanac

Astronomy

Sep. 22, 2014 Rise Set
Actual Time 6:20 AM HST 6:27 PM HST
Civil Twilight 5:57 AM HST 6:49 PM HST
Nautical Twilight 5:32 AM HST 7:15 PM HST
Astronomical Twilight 5:06 AM HST 7:41 PM HST
Moon 5:06 AM HST (9/22) 5:37 PM HST (9/22)
Length of Visible Light 12h 51m
Length of Day
12h 07m
Tomorrow will be 1m 14s shorter.
Waning Crescent, 1% of the Moon is Illuminated
Today
Waning Crescent
Sep 24
New
Oct 1
First Quarter
Oct 8
Full
Oct 15
Last Quarter

Today's Extremes

State Highs State Lows

Community

WunderPhotos

Upload Photos

1,755,575 photos uploaded!

Nearby

Air Quality

  Air Quality AQ Index Pollutant
Yesterday Good
PM10
Current Good
PM2.5
Monday Good
OZONE
Tuesday Good
OZONE

Snow Depth

Station Depth Elevation
No new snow has been reported.

Earthquake Activity

City Distance Mag. Time & Date
No recent earthquake activity has been reported nearby.
Minimum magnitude displayed is 2.5.

Coastal Water Temperatures

Place Temperature
No Stations Reporting

Nearby Weather Stations